MDT,Max TemperatureF,Mean TemperatureF,Min TemperatureF,Max Dew PointF,MeanDew PointF,Min DewpointF,Max Humidity, Mean Humidity, Min Humidity, Max Sea Level PressureIn, Mean Sea Level PressureIn, Min Sea Level PressureIn, Max VisibilityMiles, Mean VisibilityMiles, Min VisibilityMiles, Max Wind SpeedMPH, Mean Wind SpeedMPH, Max Gust SpeedMPH,PrecipitationIn, CloudCover, Events, WindDirDegrees
2013-4-1,51,34,16,26,22,14,91,65,39,30.25,30.19,30.13,10,10,8,15,7,21,0.00,2,,146
2013-4-2,51,37,23,31,28,22,85,64,42,30.21,30.16,30.11,10,10,8,18,10,35,0.00,3,,189
2013-4-3,59,45,31,35,32,29,96,68,39,30.20,30.12,30.02,10,10,10,20,11,26,0.00,3,,199
2013-4-4,66,50,34,34,32,30,82,55,28,30.17,30.05,29.95,10,10,9,17,9,23,0.00,1,,123
2013-4-5,79,62,45,38,29,20,58,35,12,29.91,29.73,29.57,10,10,8,36,13,46,0.04,2,Rain,259
2013-4-6,68,53,37,39,29,20,85,50,15,29.83,29.79,29.71,10,10,10,28,13,32,T,2,,296
2013-4-7,67,54,41,42,31,23,86,53,19,29.76,29.67,29.59,10,10,4,35,11,43,0.01,5,Rain,272
2013-4-8,68,44,20,42,31,19,92,58,24,29.78,29.63,29.44,10,7,0,41,19,53,0.61,6,Fog-Rain-Snow-Thunderstorm,22
2013-4-9,23,17,11,19,9,7,88,84,80,30.39,30.06,29.78,4,1,0,40,27,49,0.04,8,Fog-Snow-Thunderstorm,355
2013-4-10,23,14,5,16,11,2,92,80,68,30.36,30.14,29.95,10,6,1,30,16,35,T,7,Snow,335
2013-4-11,41,25,9,32,19,5,89,78,66,30.04,29.92,29.85,10,10,8,25,13,32,0.00,2,,318
2013-4-12,42,35,28,36,32,26,92,79,65,30.06,29.98,29.90,10,8,1,25,9,30,0.10,5,Rain-Snow,320
2013-4-13,58,43,28,41,34,27,100,74,47,30.03,29.69,29.43,10,8,0,31,12,37,0.09,6,Fog-Rain,193
2013-4-14,49,39,29,38,24,10,82,53,23,29.79,29.58,29.39,10,10,5,43,22,51,0.03,3,Rain,307
2013-4-15,33,28,23,27,23,19,92,78,63,30.14,29.94,29.81,10,4,0,15,9,18,0.14,8,Fog-Snow,9
2013-4-16,31,28,25,29,25,23,100,93,85,30.17,30.07,29.98,8,3,0,25,16,29,0.11,8,Fog-Rain-Snow,107
2013-4-17,31,27,22,29,23,18,100,91,81,30.21,30.05,29.97,9,2,0,28,18,36,0.06,8,Fog-Rain-Snow,33
2013-4-18,29,24,18,19,17,14,92,78,63,30.24,30.14,30.04,10,7,2,36,20,41,T,5,Snow,330
2013-4-19,51,36,21,32,25,13,76,55,33,30.16,30.06,29.97,10,10,10,26,13,32,0.00,2,,289
2013-4-20,60,46,31,37,31,26,78,57,35,29.97,29.93,29.88,10,10,10,16,9,24,T,6,Rain,197
2013-4-21,60,48,35,38,34,29,92,61,29,30.04,29.99,29.93,10,10,10,24,11,29,T,2,,277
2013-4-22,40,32,23,39,30,18,100,84,68,30.43,30.08,29.88,10,6,0,35,15,40,T,7,Fog-Rain-Snow,41
2013-4-23,41,30,19,18,15,14,81,58,34,30.40,30.29,30.19,10,10,10,18,9,24,0.00,4,,341
2013-4-24,53,36,18,24,18,12,92,57,21,30.25,30.20,30.15,10,10,10,29,13,39,0.00,1,,311
2013-4-25,68,46,24,26,18,9,81,45,9,30.22,30.01,29.86,10,10,10,20,11,25,0.00,0,,216
2013-4-26,71,52,32,24,20,16,56,35,14,30.15,30.08,29.94,10,10,10,22,10,26,0.00,0,Rain,23
2013-4-27,78,53,27,30,23,13,78,44,9,30.14,30.01,29.88,10,10,10,21,9,30,0.00,0,,282
2013-4-28,81,60,39,34,28,23,59,36,12,29.87,29.79,29.73,10,10,10,29,13,33,0.00,1,,342
2013-4-29,82,59,36,39,31,22,76,44,11,29.83,29.62,29.46,10,10,10,26,11,32,0.00,0,,220
2013-4-30,66,51,35,37,32,25,85,54,22,30.04,29.78,29.45,10,10,10,29,14,36,T,3,,23